createdAt,value
2023-03-23T15:58:56.728Z,58.88
2023-03-23T16:01:29.378Z,58.92
2023-03-23T16:04:06.911Z,59.04
2023-03-23T16:06:36.941Z,59.05
2023-03-23T16:09:08.062Z,59.24
2023-03-23T16:11:38.115Z,59.32
2023-03-23T16:14:07.482Z,59.53
2023-03-23T16:16:40.998Z,59.84
2023-03-23T16:19:12.941Z,60.17
2023-03-23T16:21:43.073Z,60.29
2023-03-23T16:24:12.633Z,60.63
2023-03-23T16:26:42.065Z,60.92
2023-03-23T16:29:28.978Z,60.87
2023-03-23T16:32:07.046Z,60.80
2023-03-23T16:34:39.404Z,61.02
2023-03-23T16:37:12.549Z,60.94
2023-03-23T16:39:42.116Z,61.08
2023-03-23T16:42:12.255Z,61.32
2023-03-23T16:44:42.562Z,61.28
2023-03-23T16:47:12.092Z,61.23
2023-03-23T16:49:41.235Z,61.35
2023-03-23T16:52:10.117Z,61.38
2023-03-23T16:54:38.708Z,61.51
2023-03-23T16:57:08.032Z,61.55
2023-03-23T16:59:36.900Z,61.52
2023-03-23T17:02:05.467Z,61.60
2023-03-23T17:04:34.677Z,61.56
2023-03-23T17:07:04.695Z,61.60
2023-03-23T17:09:34.404Z,61.68
2023-03-23T17:12:03.269Z,61.68
2023-03-23T17:14:32.124Z,61.81
2023-03-23T17:17:00.908Z,61.84
2023-03-23T17:19:31.303Z,61.71
2023-03-23T17:22:00.316Z,61.63
2023-03-23T17:24:30.477Z,61.60
2023-03-23T17:26:59.142Z,61.62
2023-03-23T17:29:27.771Z,61.61
2023-03-23T17:31:56.592Z,61.63
2023-03-23T17:34:25.561Z,61.67
2023-03-23T17:36:54.169Z,61.75
2023-03-23T17:39:22.640Z,61.73
2023-03-23T17:41:51.429Z,61.77
2023-03-23T17:44:20.734Z,61.86
2023-03-23T17:46:50.770Z,61.89
2023-03-23T17:49:20.780Z,61.94
2023-03-23T17:51:51.267Z,61.98
2023-03-23T17:54:20.914Z,62.04
2023-03-23T17:56:50.366Z,62.09
2023-03-23T17:59:23.722Z,62.17
2023-03-23T18:01:53.779Z,62.16
2023-03-23T18:04:22.912Z,62.14
2023-03-23T18:06:53.346Z,62.18
2023-03-23T18:09:22.550Z,62.10
2023-03-23T18:11:52.210Z,62.07
2023-03-23T18:14:23.662Z,61.94
2023-03-23T18:16:55.550Z,61.91
2023-03-23T18:19:26.832Z,61.92
2023-03-23T18:21:56.280Z,61.97
2023-03-23T18:24:29.228Z,62.02
2023-03-23T18:27:00.794Z,62.10
2023-03-23T18:29:30.188Z,62.18
2023-03-23T18:31:59.931Z,62.25
2023-03-23T18:34:32.022Z,62.36
2023-03-23T18:37:03.310Z,62.54
2023-03-23T18:39:40.104Z,62.62
2023-03-23T18:42:10.385Z,62.80
2023-03-23T18:44:39.268Z,62.91
2023-03-23T18:47:08.463Z,63.02
2023-03-23T18:49:37.252Z,63.14
2023-03-23T18:52:06.439Z,63.27
2023-03-23T18:54:35.339Z,63.31
2023-03-23T18:57:04.932Z,63.41
2023-03-23T18:59:34.888Z,63.48
2023-03-23T19:02:04.970Z,63.71
2023-03-23T19:04:34.740Z,63.98
2023-03-23T19:07:03.693Z,64.08
2023-03-23T19:09:35.359Z,64.13
2023-03-23T19:12:04.140Z,64.25
2023-03-23T19:14:35.285Z,64.27
2023-03-23T19:17:04.173Z,64.37
2023-03-23T19:19:34.188Z,64.40
2023-03-23T19:22:03.538Z,64.46
2023-03-23T19:24:33.267Z,64.53
2023-03-23T19:27:02.193Z,64.63
2023-03-23T19:29:31.072Z,64.73
2023-03-23T19:32:00.175Z,64.91
2023-03-23T19:34:30.881Z,64.86
2023-03-23T19:37:05.345Z,64.74
2023-03-23T19:39:36.303Z,64.66
2023-03-23T19:42:06.610Z,64.53
2023-03-23T19:44:37.717Z,64.43
2023-03-23T19:47:07.468Z,64.29
2023-03-23T19:49:36.640Z,64.19
2023-03-23T19:52:11.973Z,64.14
2023-03-23T19:54:43.228Z,64.06
2023-03-23T19:57:13.113Z,64.00
2023-03-23T19:59:42.454Z,63.97
2023-03-23T20:02:12.641Z,63.89
2023-03-23T20:04:42.131Z,63.84
2023-03-23T20:07:11.476Z,63.82
2023-03-23T20:09:40.504Z,63.82
2023-03-23T20:12:09.677Z,63.79
2023-03-23T20:14:45.129Z,63.75
2023-03-23T20:17:14.980Z,63.77
2023-03-23T20:19:44.575Z,63.76
2023-03-23T20:22:15.281Z,63.76
2023-03-23T20:24:48.296Z,63.77
2023-03-23T20:27:19.199Z,63.80
2023-03-23T20:29:48.509Z,63.87
2023-03-23T20:32:17.686Z,63.96
2023-03-23T20:34:49.554Z,64.09
2023-03-23T20:37:21.072Z,64.12
2023-03-23T20:39:50.746Z,64.24
2023-03-23T20:42:20.228Z,64.35
2023-03-23T20:44:49.337Z,64.49
2023-03-23T20:47:18.516Z,64.66
2023-03-23T20:49:53.153Z,64.88
2023-03-23T20:52:27.095Z,64.99
2023-03-23T20:54:56.964Z,65.18
2023-03-23T20:57:26.055Z,65.36
2023-03-23T20:59:56.904Z,65.61
2023-03-23T21:02:30.761Z,65.72
2023-03-23T21:05:05.762Z,65.85
2023-03-23T21:07:36.816Z,65.92
2023-03-23T21:10:07.780Z,66.15
2023-03-23T21:12:36.942Z,66.23
2023-03-23T21:15:06.613Z,66.23
2023-03-23T21:17:36.171Z,66.28
2023-03-23T21:20:08.335Z,66.33
2023-03-23T21:22:37.606Z,66.28
2023-03-23T21:25:07.718Z,66.30
2023-03-23T21:27:37.314Z,66.34
2023-03-23T21:30:07.247Z,66.39
2023-03-23T21:32:36.805Z,66.33
2023-03-23T21:35:07.181Z,66.38
2023-03-23T21:37:37.265Z,66.42
2023-03-23T21:40:13.742Z,66.39
2023-03-23T21:42:44.998Z,66.34
2023-03-23T21:45:21.225Z,66.42
2023-03-23T21:47:57.125Z,66.40
2023-03-23T21:50:25.914Z,66.48
2023-03-23T21:52:54.501Z,66.56
2023-03-23T21:55:23.258Z,66.72
2023-03-23T21:57:53.198Z,66.73
2023-03-23T22:00:23.526Z,66.91
2023-03-23T22:02:53.742Z,66.95
2023-03-23T22:05:24.392Z,67.14
2023-03-23T22:07:54.562Z,67.36
2023-03-23T22:10:23.139Z,67.60
2023-03-23T22:12:55.420Z,67.68
2023-03-23T22:15:28.393Z,67.86
2023-03-23T22:17:58.691Z,68.02
2023-03-23T22:20:29.610Z,68.22
2023-03-23T22:22:58.338Z,68.48
2023-03-23T22:25:27.331Z,68.52
2023-03-23T22:27:55.938Z,68.78
2023-03-23T22:30:24.836Z,69.00
2023-03-23T22:32:53.325Z,69.13
2023-03-23T22:35:22.282Z,69.26
2023-03-23T22:37:50.513Z,69.39
2023-03-23T22:40:19.951Z,69.46
2023-03-23T22:42:48.353Z,69.65
2023-03-23T22:45:17.544Z,69.76
2023-03-23T22:47:46.067Z,69.94
2023-03-23T22:50:14.931Z,69.96
2023-03-23T22:52:43.315Z,70.05
2023-03-23T22:55:11.735Z,70.28
2023-03-23T22:57:40.053Z,70.29
2023-03-23T23:00:15.189Z,70.34
2023-03-23T23:02:44.236Z,70.31
2023-03-23T23:05:13.854Z,70.63
2023-03-23T23:07:42.063Z,70.52
2023-03-23T23:10:10.450Z,70.74
2023-03-23T23:12:39.551Z,70.68
2023-03-23T23:15:09.070Z,70.68
2023-03-23T23:17:39.103Z,70.63
2023-03-23T23:20:12.971Z,70.87
2023-03-23T23:22:43.741Z,71.05
2023-03-23T23:25:13.435Z,71.17
2023-03-23T23:27:41.686Z,71.45
2023-03-23T23:30:11.183Z,71.53
2023-03-23T23:32:39.500Z,71.32
2023-03-23T23:35:08.051Z,71.31
2023-03-23T23:37:36.550Z,71.41
2023-03-23T23:40:10.927Z,71.64
2023-03-23T23:42:39.350Z,71.71
2023-03-23T23:45:10.456Z,71.72
2023-03-23T23:47:39.108Z,71.78
2023-03-23T23:50:10.481Z,71.74
2023-03-23T23:52:40.345Z,71.76
2023-03-23T23:55:10.665Z,71.75
2023-03-23T23:57:39.258Z,71.62
